createdAt,value
2023-05-24T00:00:01.636Z,8.71
2023-05-24T00:01:03.135Z,8.70
2023-05-24T00:02:06.714Z,8.61
2023-05-24T00:03:08.589Z,8.65
2023-05-24T00:04:11.092Z,8.58
2023-05-24T00:05:14.709Z,8.53
2023-05-24T00:06:17.121Z,8.57
2023-05-24T00:07:19.428Z,8.65
2023-05-24T00:08:21.014Z,8.70
2023-05-24T00:09:22.442Z,8.66
2023-05-24T00:10:23.917Z,8.64
2023-05-24T00:11:25.353Z,8.59
2023-05-24T00:12:26.829Z,8.52
2023-05-24T00:13:28.353Z,8.49
2023-05-24T00:14:30.217Z,8.51
2023-05-24T00:15:31.738Z,8.52
2023-05-24T00:16:33.288Z,8.50
2023-05-24T00:17:40.974Z,8.45
2023-05-24T00:18:46.851Z,8.50
2023-05-24T00:19:48.405Z,8.60
2023-05-24T00:20:51.767Z,8.57
2023-05-24T00:21:53.363Z,8.57
2023-05-24T00:22:54.851Z,8.50
2023-05-24T00:23:56.353Z,8.45
2023-05-24T00:24:57.804Z,8.49
2023-05-24T00:25:59.592Z,8.52
2023-05-24T00:27:01.333Z,8.61
2023-05-24T00:28:02.860Z,8.64
2023-05-24T00:29:04.349Z,8.64
2023-05-24T00:30:06.807Z,8.64
2023-05-24T00:31:08.482Z,8.66
2023-05-24T00:32:10.034Z,8.66
2023-05-24T00:33:11.612Z,8.60
2023-05-24T00:34:13.092Z,8.65
2023-05-24T00:35:14.600Z,8.66
2023-05-24T00:36:16.167Z,8.59
2023-05-24T00:37:18.067Z,8.59
2023-05-24T00:38:19.551Z,8.60
2023-05-24T00:39:21.163Z,8.64
2023-05-24T00:40:22.685Z,8.63
2023-05-24T00:41:24.243Z,8.61
2023-05-24T00:42:25.912Z,8.60
2023-05-24T00:43:27.461Z,8.65
2023-05-24T00:44:29.599Z,8.62
2023-05-24T00:45:33.590Z,8.65
2023-05-24T00:46:35.555Z,8.53
2023-05-24T00:47:37.251Z,8.61
2023-05-24T00:48:38.728Z,8.59
2023-05-24T00:49:40.517Z,8.56
2023-05-24T00:50:42.141Z,8.52
2023-05-24T00:51:43.766Z,8.54
2023-05-24T00:52:47.657Z,8.59
2023-05-24T00:53:50.126Z,8.53
2023-05-24T00:54:51.888Z,8.59
2023-05-24T00:55:54.932Z,8.56
2023-05-24T00:56:57.122Z,8.59
2023-05-24T00:57:58.653Z,8.51
2023-05-24T00:59:00.253Z,8.58
2023-05-24T01:00:04.929Z,8.66
2023-05-24T01:01:06.978Z,8.64
2023-05-24T01:02:08.550Z,8.68
2023-05-24T01:03:10.259Z,8.71
2023-05-24T01:04:12.489Z,8.67
2023-05-24T01:05:14.071Z,8.76
2023-05-24T01:06:16.237Z,8.69
2023-05-24T01:07:23.626Z,8.68
2023-05-24T01:08:28.001Z,8.77
2023-05-24T01:09:34.522Z,8.78
2023-05-24T01:10:59.448Z,8.74
2023-05-24T01:12:21.909Z,8.75
2023-05-24T01:13:48.832Z,8.75
2023-05-24T01:14:53.033Z,8.73
2023-05-24T01:16:11.123Z,8.63
2023-05-24T01:17:24.111Z,8.68
2023-05-24T01:18:34.795Z,8.71
2023-05-24T01:19:56.395Z,8.77
2023-05-24T01:21:12.921Z,8.79
2023-05-24T01:22:32.777Z,8.76
2023-05-24T01:24:02.165Z,8.88
2023-05-24T01:25:13.534Z,8.87
2023-05-24T01:26:22.132Z,8.86
2023-05-24T01:27:24.519Z,8.82
2023-05-24T01:28:27.425Z,8.82
2023-05-24T01:29:31.313Z,8.79
2023-05-24T01:30:33.287Z,8.89
2023-05-24T01:31:35.901Z,8.90
2023-05-24T01:32:38.448Z,8.89
2023-05-24T01:33:43.612Z,8.83
2023-05-24T01:34:45.307Z,8.85
2023-05-24T01:35:46.770Z,8.85
2023-05-24T01:36:48.208Z,8.87
2023-05-24T01:37:49.672Z,8.91
2023-05-24T01:38:51.942Z,8.94
2023-05-24T01:39:53.629Z,8.98
2023-05-24T01:41:04.498Z,8.95
2023-05-24T01:42:20.872Z,9.01
2023-05-24T01:43:22.417Z,8.99
2023-05-24T01:44:59.037Z,9.01
2023-05-24T01:46:22.700Z,8.94
2023-05-24T01:47:52.595Z,9.02
2023-05-24T01:49:06.735Z,9.06
2023-05-24T01:50:25.099Z,9.01
2023-05-24T01:51:34.246Z,9.01
2023-05-24T01:52:36.201Z,9.03
2023-05-24T01:53:47.431Z,9.08
2023-05-24T01:54:52.856Z,9.08
2023-05-24T01:55:57.166Z,9.06
2023-05-24T01:56:58.989Z,9.02
2023-05-24T01:58:03.112Z,9.06
2023-05-24T01:59:07.133Z,9.06
2023-05-24T02:00:10.710Z,9.06
2023-05-24T02:01:13.393Z,9.17
2023-05-24T02:02:14.952Z,9.20
2023-05-24T02:03:17.007Z,9.21
2023-05-24T02:04:18.621Z,9.22
2023-05-24T02:05:21.395Z,9.22
2023-05-24T02:06:22.891Z,9.21
2023-05-24T02:07:24.346Z,9.16
2023-05-24T02:08:26.024Z,9.21
2023-05-24T02:09:27.466Z,9.17
2023-05-24T02:10:28.932Z,9.15
2023-05-24T02:11:30.422Z,9.11
2023-05-24T02:12:31.960Z,9.12
2023-05-24T02:13:33.463Z,9.14
2023-05-24T02:14:37.903Z,9.17
2023-05-24T02:15:41.747Z,9.22
2023-05-24T02:16:46.590Z,9.18
2023-05-24T02:17:48.222Z,9.16
2023-05-24T02:18:50.518Z,9.16
2023-05-24T02:19:52.130Z,9.18
2023-05-24T02:20:53.654Z,9.16
2023-05-24T02:21:55.189Z,9.16
2023-05-24T02:22:57.879Z,9.16
2023-05-24T02:23:59.342Z,9.20
2023-05-24T02:25:00.941Z,9.20
2023-05-24T02:26:02.445Z,9.26
2023-05-24T02:27:04.059Z,9.22
2023-05-24T02:28:05.552Z,9.21
2023-05-24T02:29:06.999Z,9.25
2023-05-24T02:30:08.994Z,9.22
2023-05-24T02:31:10.442Z,9.27
2023-05-24T02:32:11.921Z,9.23
2023-05-24T02:33:13.448Z,9.25
2023-05-24T02:34:14.888Z,9.24
2023-05-24T02:35:16.507Z,9.22
2023-05-24T02:36:18.183Z,9.18
2023-05-24T02:37:20.594Z,9.15
2023-05-24T02:38:22.561Z,9.10
2023-05-24T02:39:23.908Z,9.09
2023-05-24T02:40:26.179Z,9.22
2023-05-24T02:41:27.701Z,9.21
2023-05-24T02:42:29.240Z,9.21
2023-05-24T02:43:30.684Z,9.23
2023-05-24T02:44:32.102Z,9.16
2023-05-24T02:45:33.614Z,9.18
2023-05-24T02:46:35.129Z,9.16
2023-05-24T02:47:36.692Z,9.14
2023-05-24T02:48:38.214Z,9.15
2023-05-24T02:49:39.668Z,9.17
2023-05-24T02:50:41.479Z,9.14
2023-05-24T02:51:43.019Z,9.11
2023-05-24T02:52:44.495Z,9.06
2023-05-24T02:53:45.953Z,9.14
2023-05-24T02:54:47.807Z,9.18
2023-05-24T02:55:49.346Z,9.08
2023-05-24T02:56:50.930Z,9.06
2023-05-24T02:57:52.790Z,9.05
2023-05-24T02:58:54.274Z,9.15
2023-05-24T02:59:56.092Z,9.14
2023-05-24T03:00:57.606Z,9.13
2023-05-24T03:01:59.919Z,9.16
2023-05-24T03:03:03.211Z,9.10
2023-05-24T03:04:04.934Z,9.09
2023-05-24T03:05:08.054Z,9.10
2023-05-24T03:06:09.516Z,9.11
2023-05-24T03:07:11.158Z,9.16
2023-05-24T03:08:12.671Z,9.12
2023-05-24T03:09:16.248Z,9.09
2023-05-24T03:10:17.834Z,9.14
2023-05-24T03:11:22.141Z,9.10
2023-05-24T03:12:23.854Z,9.06
2023-05-24T03:13:25.326Z,9.05
2023-05-24T03:14:26.843Z,9.08
2023-05-24T03:15:28.342Z,8.98
2023-05-24T03:16:29.827Z,9.05
2023-05-24T03:17:31.291Z,9.12
2023-05-24T03:18:32.840Z,9.11
2023-05-24T03:19:34.322Z,9.08
2023-05-24T03:20:35.871Z,9.15
2023-05-24T03:21:37.621Z,9.10
2023-05-24T03:22:39.126Z,9.14
2023-05-24T03:23:40.680Z,9.13
2023-05-24T03:24:42.153Z,9.13
2023-05-24T03:25:43.632Z,9.13
2023-05-24T03:26:45.267Z,9.15
2023-05-24T03:27:46.788Z,9.20
2023-05-24T03:28:50.519Z,9.14
2023-05-24T03:29:52.296Z,9.18
2023-05-24T03:30:53.986Z,9.11
2023-05-24T03:31:55.546Z,9.13
2023-05-24T03:32:57.215Z,9.14
2023-05-24T03:33:58.716Z,9.15
2023-05-24T03:35:01.518Z,9.15
2023-05-24T03:36:04.195Z,9.15
2023-05-24T03:37:05.800Z,9.14
2023-05-24T03:38:07.282Z,9.18
2023-05-24T03:39:09.329Z,9.16
2023-05-24T03:40:10.952Z,9.17
2023-05-24T03:41:12.416Z,9.17
2023-05-24T03:42:13.910Z,9.16
2023-05-24T03:43:15.554Z,9.17
2023-05-24T03:44:17.030Z,9.12
2023-05-24T03:45:26.938Z,9.11
2023-05-24T03:46:36.423Z,9.05
2023-05-24T03:47:37.882Z,9.12
2023-05-24T03:48:39.329Z,9.15
2023-05-24T03:49:40.763Z,9.16
2023-05-24T03:50:42.602Z,9.14
2023-05-24T03:51:44.208Z,9.17
2023-05-24T03:52:47.343Z,9.18
2023-05-24T03:53:48.796Z,9.12
2023-05-24T03:54:50.617Z,9.10
2023-05-24T03:55:52.112Z,9.11
2023-05-24T03:56:53.687Z,9.21
2023-05-24T03:57:55.275Z,9.12
2023-05-24T03:59:00.547Z,9.16
2023-05-24T04:00:02.011Z,9.17
2023-05-24T04:01:04.153Z,9.17
2023-05-24T04:02:05.646Z,9.31
2023-05-24T04:03:07.360Z,9.28
2023-05-24T04:04:08.914Z,9.31
2023-05-24T04:05:10.794Z,9.33
2023-05-24T04:06:15.110Z,9.31
2023-05-24T04:07:17.747Z,9.29
2023-05-24T04:08:19.278Z,9.29
2023-05-24T04:09:22.848Z,9.21
2023-05-24T04:10:24.344Z,9.30
2023-05-24T04:11:28.459Z,9.29
2023-05-24T04:12:31.256Z,9.29
2023-05-24T04:13:33.043Z,9.31
2023-05-24T04:14:35.205Z,9.24
2023-05-24T04:15:37.953Z,9.27
2023-05-24T04:16:39.796Z,9.30
2023-05-24T04:17:42.559Z,9.28
2023-05-24T04:18:45.410Z,9.30
2023-05-24T04:19:47.031Z,9.26
2023-05-24T04:20:48.501Z,9.32
2023-05-24T04:21:50.484Z,9.38
2023-05-24T04:22:51.923Z,9.42
2023-05-24T04:23:53.396Z,9.40
2023-05-24T04:24:54.956Z,9.41
2023-05-24T04:25:56.667Z,9.44
2023-05-24T04:26:58.268Z,9.39
2023-05-24T04:28:00.331Z,9.45
2023-05-24T04:29:01.817Z,9.42
2023-05-24T04:30:03.891Z,9.33
2023-05-24T04:31:06.731Z,9.33
2023-05-24T04:32:10.129Z,9.44
2023-05-24T04:33:11.662Z,9.42
2023-05-24T04:34:14.267Z,9.44
2023-05-24T04:35:16.708Z,9.47
2023-05-24T04:36:18.707Z,9.38
2023-05-24T04:37:20.706Z,9.45
2023-05-24T04:38:23.207Z,9.39
2023-05-24T04:39:24.637Z,9.33
2023-05-24T04:40:26.329Z,9.35
2023-05-24T04:41:29.057Z,9.40
2023-05-24T04:42:31.719Z,9.30
2023-05-24T04:43:36.895Z,9.28
2023-05-24T04:44:40.739Z,9.34
2023-05-24T04:45:42.190Z,9.40
2023-05-24T04:46:43.677Z,9.31
2023-05-24T04:47:45.302Z,9.39
2023-05-24T04:48:46.799Z,9.37
2023-05-24T04:49:48.279Z,9.40
2023-05-24T04:50:54.754Z,9.48
2023-05-24T04:51:57.065Z,9.45
2023-05-24T04:52:58.617Z,9.47
2023-05-24T04:54:01.473Z,9.53
2023-05-24T04:55:03.833Z,9.46
2023-05-24T04:56:05.479Z,9.45
2023-05-24T04:57:06.913Z,9.57
2023-05-24T04:58:09.358Z,9.50
2023-05-24T04:59:12.313Z,9.52
2023-05-24T05:00:14.153Z,9.53
2023-05-24T05:01:15.800Z,9.64
2023-05-24T05:02:17.465Z,9.72
2023-05-24T05:03:19.087Z,9.68
2023-05-24T05:04:20.610Z,9.64
2023-05-24T05:05:22.110Z,9.63
2023-05-24T05:06:23.554Z,9.67
2023-05-24T05:07:25.040Z,9.72
2023-05-24T05:08:26.514Z,9.71
2023-05-24T05:09:28.215Z,9.74
2023-05-24T05:10:30.338Z,9.65
2023-05-24T05:11:31.884Z,9.66
2023-05-24T05:12:33.339Z,9.69
2023-05-24T05:13:34.907Z,9.72
2023-05-24T05:14:36.346Z,9.75
2023-05-24T05:15:37.818Z,9.76
2023-05-24T05:16:39.465Z,9.65
2023-05-24T05:17:41.034Z,9.68
2023-05-24T05:18:42.516Z,9.69
2023-05-24T05:19:43.978Z,9.73
2023-05-24T05:20:45.804Z,9.74
2023-05-24T05:21:47.616Z,9.66
2023-05-24T05:22:49.402Z,9.70
2023-05-24T05:23:50.925Z,9.70
2023-05-24T05:24:52.451Z,9.66
2023-05-24T05:25:53.900Z,9.60
2023-05-24T05:26:55.757Z,9.57
2023-05-24T05:27:57.466Z,9.52
2023-05-24T05:28:59.067Z,9.48
2023-05-24T05:30:00.714Z,9.50
2023-05-24T05:31:02.263Z,9.55
2023-05-24T05:32:03.801Z,9.55
2023-05-24T05:33:06.142Z,9.60
2023-05-24T05:34:10.876Z,9.71
2023-05-24T05:35:12.399Z,9.68
2023-05-24T05:36:13.870Z,9.70
2023-05-24T05:37:15.301Z,9.69
2023-05-24T05:38:16.831Z,9.70
2023-05-24T05:39:18.374Z,9.82
2023-05-24T05:40:22.882Z,9.82
2023-05-24T05:41:24.337Z,9.84
2023-05-24T05:42:25.917Z,9.95
2023-05-24T05:43:28.974Z,9.94
2023-05-24T05:44:30.494Z,9.75
2023-05-24T05:45:31.927Z,9.84
2023-05-24T05:46:33.530Z,9.86
2023-05-24T05:47:35.277Z,9.84
2023-05-24T05:48:36.728Z,9.81
2023-05-24T05:49:38.271Z,9.90
2023-05-24T05:50:39.853Z,9.86
2023-05-24T05:51:41.801Z,9.90
2023-05-24T05:52:43.454Z,10.01
2023-05-24T05:53:44.978Z,9.98
2023-05-24T05:54:46.517Z,9.96
2023-05-24T05:55:47.943Z,9.92
2023-05-24T05:56:49.542Z,9.95
2023-05-24T05:57:51.070Z,10.06
2023-05-24T05:58:52.497Z,10.17
2023-05-24T05:59:54.014Z,10.10
2023-05-24T06:00:55.477Z,10.01
2023-05-24T06:01:56.952Z,9.99
2023-05-24T06:02:58.665Z,10.08
2023-05-24T06:04:00.367Z,9.87
2023-05-24T06:05:02.981Z,10.01
2023-05-24T06:06:04.661Z,10.11
2023-05-24T06:07:06.915Z,10.10
2023-05-24T06:08:08.489Z,10.12
2023-05-24T06:09:10.161Z,10.33
2023-05-24T06:10:11.989Z,10.28
2023-05-24T06:11:13.461Z,10.24
2023-05-24T06:12:14.976Z,10.35
2023-05-24T06:13:16.438Z,10.42
2023-05-24T06:14:18.389Z,10.51
2023-05-24T06:15:22.792Z,10.53
2023-05-24T06:16:24.604Z,10.66
2023-05-24T06:17:26.251Z,10.67
2023-05-24T06:18:30.521Z,10.72
2023-05-24T06:19:33.062Z,10.79
2023-05-24T06:20:34.680Z,10.77
2023-05-24T06:21:37.327Z,10.69
2023-05-24T06:22:39.805Z,10.79
2023-05-24T06:23:41.481Z,10.90
2023-05-24T06:24:43.784Z,10.95
2023-05-24T06:25:45.273Z,10.98
2023-05-24T06:26:48.068Z,11.14
2023-05-24T06:27:49.944Z,11.03
2023-05-24T06:28:51.530Z,11.21
2023-05-24T06:29:53.011Z,11.32
2023-05-24T06:30:54.555Z,11.25
2023-05-24T06:31:56.214Z,10.94
2023-05-24T06:32:57.788Z,11.04
2023-05-24T06:35:03.834Z,11.11
2023-05-24T06:36:05.409Z,10.94
2023-05-24T06:37:10.213Z,10.97
2023-05-24T06:38:11.728Z,10.96
2023-05-24T06:39:13.929Z,10.89
2023-05-24T06:40:15.453Z,10.59
2023-05-24T06:41:16.966Z,10.42
2023-05-24T06:42:18.438Z,10.35
2023-05-24T06:43:20.784Z,10.43
2023-05-24T06:44:25.221Z,10.50
2023-05-24T06:45:26.891Z,10.45
2023-05-24T06:46:28.379Z,10.40
2023-05-24T06:47:30.098Z,10.44
2023-05-24T06:48:31.789Z,10.41
2023-05-24T06:49:33.586Z,10.52
2023-05-24T06:50:36.344Z,10.46
2023-05-24T06:51:38.183Z,10.37
2023-05-24T06:52:39.644Z,10.18
2023-05-24T06:53:41.561Z,10.27
2023-05-24T06:54:42.983Z,10.24
2023-05-24T06:55:44.654Z,10.31
2023-05-24T06:56:46.353Z,10.52
2023-05-24T06:57:47.931Z,10.59
2023-05-24T06:58:49.445Z,10.73
2023-05-24T06:59:51.085Z,10.72
2023-05-24T07:00:53.146Z,10.75
2023-05-24T07:01:58.935Z,10.59
2023-05-24T07:03:01.685Z,10.79
2023-05-24T07:04:03.209Z,10.56
2023-05-24T07:05:06.354Z,10.59
2023-05-24T07:06:10.003Z,10.40
2023-05-24T07:07:13.156Z,10.37
2023-05-24T07:08:14.745Z,10.54
2023-05-24T07:09:16.215Z,10.54
2023-05-24T07:10:17.722Z,10.67
2023-05-24T07:11:19.266Z,10.66
2023-05-24T07:12:20.949Z,10.64
2023-05-24T07:13:22.939Z,10.78
2023-05-24T07:14:25.936Z,10.56
2023-05-24T07:15:27.557Z,10.87
2023-05-24T07:16:29.037Z,11.08
2023-05-24T07:17:31.008Z,11.32
2023-05-24T07:18:32.358Z,11.46
2023-05-24T07:19:35.825Z,11.47
2023-05-24T07:20:37.338Z,11.29
2023-05-24T07:21:38.828Z,11.40
2023-05-24T07:22:41.302Z,11.33
2023-05-24T07:23:42.791Z,11.40
2023-05-24T07:24:44.273Z,11.33
2023-05-24T07:25:45.704Z,11.31
2023-05-24T07:26:47.290Z,11.22
2023-05-24T07:27:48.821Z,11.33
2023-05-24T07:28:50.439Z,11.27
2023-05-24T07:29:51.932Z,11.13
2023-05-24T07:30:53.698Z,11.26
2023-05-24T07:31:56.362Z,11.02
2023-05-24T07:32:58.000Z,11.07
2023-05-24T07:33:59.586Z,11.23
2023-05-24T07:35:01.090Z,11.22
2023-05-24T07:36:02.738Z,11.31
2023-05-24T07:37:04.382Z,11.31
2023-05-24T07:38:06.949Z,11.47
2023-05-24T07:39:10.137Z,11.66
2023-05-24T07:40:12.204Z,11.40
2023-05-24T07:41:14.274Z,11.70
2023-05-24T07:42:15.901Z,11.73
2023-05-24T07:43:17.351Z,11.84
2023-05-24T07:44:19.290Z,11.80
2023-05-24T07:45:20.791Z,11.78
2023-05-24T07:46:22.485Z,11.66
2023-05-24T07:47:24.004Z,11.46
2023-05-24T07:48:25.890Z,11.63
2023-05-24T07:49:27.523Z,11.55
2023-05-24T07:50:29.347Z,11.45
2023-05-24T07:51:32.593Z,11.46
2023-05-24T07:52:34.090Z,11.53
2023-05-24T07:53:37.732Z,11.63
2023-05-24T07:54:39.241Z,11.74
2023-05-24T07:55:40.990Z,11.94
2023-05-24T07:56:42.995Z,11.80
2023-05-24T07:57:44.504Z,11.76
2023-05-24T07:58:46.862Z,11.59
2023-05-24T07:59:48.615Z,11.56
2023-05-24T08:00:50.108Z,11.76
2023-05-24T08:01:52.435Z,11.76
2023-05-24T08:02:54.081Z,12.01
2023-05-24T08:03:56.485Z,12.11
2023-05-24T08:04:58.320Z,12.06
2023-05-24T08:05:59.757Z,12.22
2023-05-24T08:07:05.457Z,12.21
2023-05-24T08:08:07.766Z,12.13
2023-05-24T08:09:09.257Z,12.11
2023-05-24T08:10:13.721Z,11.77
2023-05-24T08:11:15.455Z,11.79
2023-05-24T08:12:17.351Z,11.57
2023-05-24T08:13:18.887Z,11.52
2023-05-24T08:14:20.324Z,11.64
2023-05-24T08:15:21.820Z,11.63
2023-05-24T08:16:24.460Z,11.60
2023-05-24T08:17:27.397Z,11.68
2023-05-24T08:18:29.046Z,11.69
2023-05-24T08:19:35.681Z,11.70
2023-05-24T08:20:37.524Z,11.77
2023-05-24T08:21:39.050Z,11.58
2023-05-24T08:22:40.876Z,11.26
2023-05-24T08:23:42.334Z,11.45
2023-05-24T08:24:43.923Z,11.42
2023-05-24T08:25:45.550Z,11.22
2023-05-24T08:26:47.477Z,11.11
2023-05-24T08:27:48.981Z,11.23
2023-05-24T08:28:50.471Z,11.32
2023-05-24T08:29:55.462Z,11.55
2023-05-24T08:30:59.315Z,11.25
2023-05-24T08:32:01.066Z,11.30
2023-05-24T08:33:03.069Z,11.31
2023-05-24T08:34:04.510Z,11.54
2023-05-24T08:35:18.432Z,11.69
2023-05-24T08:36:22.198Z,11.96
2023-05-24T08:37:23.917Z,12.06
2023-05-24T08:38:25.717Z,11.94
2023-05-24T08:39:27.307Z,11.95
2023-05-24T08:40:28.802Z,11.79
2023-05-24T08:41:33.097Z,12.00
2023-05-24T08:42:37.920Z,11.94
2023-05-24T08:43:39.568Z,11.58
2023-05-24T08:44:47.177Z,11.71
2023-05-24T08:45:49.952Z,11.86
2023-05-24T08:46:53.724Z,11.93
2023-05-24T08:47:57.093Z,11.49
2023-05-24T08:48:59.586Z,11.67
2023-05-24T08:50:02.077Z,11.87
2023-05-24T08:51:03.941Z,11.95
2023-05-24T08:52:07.614Z,11.93
2023-05-24T08:53:10.255Z,11.82
2023-05-24T08:54:13.808Z,11.99
2023-05-24T08:55:15.991Z,12.14
2023-05-24T08:56:18.705Z,12.38
2023-05-24T08:57:21.580Z,12.58
2023-05-24T08:58:26.277Z,12.62
2023-05-24T08:59:27.952Z,12.84
2023-05-24T09:00:29.495Z,12.88
2023-05-24T09:01:34.535Z,12.85
2023-05-24T09:02:39.132Z,12.44
2023-05-24T09:03:42.188Z,12.70
2023-05-24T09:04:46.889Z,12.82
2023-05-24T09:05:48.454Z,12.82
2023-05-24T09:06:52.241Z,12.68
2023-05-24T09:07:56.689Z,12.77
2023-05-24T09:09:00.742Z,12.75
2023-05-24T09:10:06.011Z,12.90
2023-05-24T09:11:08.624Z,12.68
2023-05-24T09:12:19.353Z,12.59
2023-05-24T09:13:31.779Z,13.03
2023-05-24T09:14:33.770Z,13.04
2023-05-24T09:15:35.292Z,13.36
2023-05-24T09:16:37.151Z,13.32
2023-05-24T09:17:39.092Z,13.43
2023-05-24T09:18:42.795Z,13.48
2023-05-24T09:19:48.911Z,13.31
2023-05-24T09:20:51.475Z,13.19
2023-05-24T09:21:53.894Z,13.58
2023-05-24T09:22:56.136Z,13.39
2023-05-24T09:23:58.504Z,13.40
2023-05-24T09:25:04.645Z,13.63
2023-05-24T09:26:10.099Z,13.70
2023-05-24T09:27:11.890Z,13.48
2023-05-24T09:28:15.856Z,13.06
2023-05-24T09:29:22.846Z,12.96
2023-05-24T09:30:24.302Z,13.23
2023-05-24T09:31:36.015Z,13.09
2023-05-24T09:32:37.909Z,13.30
2023-05-24T09:33:39.930Z,13.66
2023-05-24T09:34:42.011Z,13.72
2023-05-24T09:35:44.177Z,13.74
2023-05-24T09:36:46.349Z,14.02
2023-05-24T09:37:48.358Z,13.85
2023-05-24T09:38:54.512Z,14.04
2023-05-24T09:39:57.957Z,14.06
2023-05-24T09:41:03.444Z,14.15
2023-05-24T09:42:05.186Z,13.74
2023-05-24T09:43:10.759Z,13.65
2023-05-24T09:44:15.769Z,13.74
2023-05-24T09:45:17.857Z,14.02
2023-05-24T09:46:22.189Z,13.70
2023-05-24T09:47:29.480Z,13.64
2023-05-24T09:48:32.650Z,13.50
2023-05-24T09:49:37.243Z,13.75
2023-05-24T09:50:38.719Z,13.61
2023-05-24T09:51:40.252Z,13.85
2023-05-24T09:52:42.100Z,13.64
2023-05-24T09:53:44.773Z,13.63
2023-05-24T09:54:48.055Z,13.60
2023-05-24T09:55:49.614Z,13.05
2023-05-24T09:56:51.596Z,13.26
2023-05-24T09:58:05.860Z,13.67
2023-05-24T09:59:08.411Z,13.69
2023-05-24T10:00:17.988Z,13.61
2023-05-24T10:01:24.055Z,13.39
2023-05-24T10:02:26.279Z,13.67
2023-05-24T10:03:27.843Z,13.60
2023-05-24T10:04:33.981Z,13.42
2023-05-24T10:05:36.446Z,13.55
2023-05-24T10:06:38.824Z,13.06
2023-05-24T10:07:42.183Z,13.26
2023-05-24T10:08:43.748Z,13.41
2023-05-24T10:09:46.658Z,13.50
2023-05-24T10:10:48.245Z,13.49
2023-05-24T10:11:52.677Z,13.40
2023-05-24T10:12:56.103Z,13.19
2023-05-24T10:13:58.931Z,13.26
2023-05-24T10:15:00.798Z,13.51
2023-05-24T10:16:05.413Z,13.62
2023-05-24T10:17:07.382Z,13.51
2023-05-24T10:18:11.460Z,13.68
2023-05-24T10:19:14.602Z,13.60
2023-05-24T10:20:16.267Z,13.72
2023-05-24T10:21:21.831Z,13.84
2023-05-24T10:22:26.078Z,13.67
2023-05-24T10:23:30.713Z,13.09
2023-05-24T10:24:47.257Z,13.25
2023-05-24T10:26:15.828Z,13.29
2023-05-24T10:27:23.350Z,13.47
2023-05-24T10:28:26.217Z,13.47
2023-05-24T10:29:48.158Z,13.56
2023-05-24T10:31:05.810Z,13.27
2023-05-24T10:32:09.070Z,13.47
2023-05-24T10:33:13.998Z,13.66
2023-05-24T10:34:16.665Z,13.65
2023-05-24T10:35:20.201Z,13.67
2023-05-24T10:36:22.744Z,13.49
2023-05-24T10:37:26.358Z,13.49
2023-05-24T10:38:29.922Z,13.63
2023-05-24T10:39:33.470Z,13.65
2023-05-24T10:40:35.580Z,13.49
2023-05-24T10:41:43.272Z,13.83
2023-05-24T10:42:45.214Z,13.96
2023-05-24T10:44:00.868Z,13.89
2023-05-24T10:45:27.667Z,13.63
2023-05-24T10:46:29.194Z,13.57
2023-05-24T10:47:31.821Z,13.64
2023-05-24T10:48:40.542Z,13.81
2023-05-24T10:49:53.255Z,13.81
2023-05-24T10:50:55.058Z,13.86
2023-05-24T10:52:16.869Z,13.86
2023-05-24T10:53:20.359Z,13.89
2023-05-24T10:54:27.052Z,13.83
2023-05-24T10:55:28.515Z,13.52
2023-05-24T10:56:29.992Z,13.44
2023-05-24T10:57:34.440Z,13.47
2023-05-24T10:58:57.895Z,13.37
2023-05-24T11:00:34.739Z,13.47
2023-05-24T11:01:37.045Z,13.45
2023-05-24T11:02:38.679Z,13.45
2023-05-24T11:03:43.331Z,13.41
2023-05-24T11:04:49.193Z,13.36
2023-05-24T11:05:54.427Z,13.38
2023-05-24T11:07:05.251Z,13.25
2023-05-24T11:08:07.192Z,12.94
2023-05-24T11:09:11.877Z,13.11
2023-05-24T11:10:16.986Z,13.27
2023-05-24T11:11:29.235Z,13.16
2023-05-24T11:12:38.485Z,12.76
2023-05-24T11:13:41.033Z,12.99
2023-05-24T11:14:48.127Z,12.81
2023-05-24T11:15:51.067Z,13.11
2023-05-24T11:16:52.749Z,13.39
2023-05-24T11:18:09.508Z,13.40
2023-05-24T11:19:17.210Z,13.38
2023-05-24T11:20:20.463Z,13.67
2023-05-24T11:21:22.974Z,13.67
2023-05-24T11:22:25.730Z,13.78
2023-05-24T11:23:29.229Z,13.97
2023-05-24T11:24:31.058Z,14.02
2023-05-24T11:25:39.553Z,14.22
2023-05-24T11:26:41.206Z,14.31
2023-05-24T11:27:46.506Z,14.47
2023-05-24T11:28:49.103Z,14.70
2023-05-24T11:29:50.618Z,14.88
2023-05-24T11:30:52.140Z,14.87
2023-05-24T11:32:05.926Z,14.83
2023-05-24T11:33:16.683Z,14.40
2023-05-24T11:34:21.111Z,14.42
2023-05-24T11:35:25.823Z,14.50
2023-05-24T11:36:27.471Z,15.23
2023-05-24T11:37:45.201Z,15.87
2023-05-24T11:38:49.853Z,16.22
2023-05-24T11:39:54.184Z,15.99
2023-05-24T11:40:58.280Z,16.33
2023-05-24T11:42:00.209Z,16.89
2023-05-24T11:43:01.798Z,17.01
2023-05-24T11:44:03.446Z,17.35
2023-05-24T11:45:09.514Z,16.58
2023-05-24T11:46:11.392Z,17.37
2023-05-24T11:47:13.073Z,17.13
2023-05-24T11:48:15.227Z,17.10
2023-05-24T11:49:17.613Z,16.98
2023-05-24T11:50:25.311Z,16.65
2023-05-24T11:51:33.261Z,16.86
2023-05-24T11:52:40.004Z,16.92
2023-05-24T11:53:41.474Z,16.52
2023-05-24T11:54:42.937Z,16.54
2023-05-24T11:55:45.211Z,16.60
2023-05-24T11:56:47.247Z,16.69
2023-05-24T11:57:57.723Z,16.59
2023-05-24T11:59:17.412Z,16.55
2023-05-24T12:00:28.696Z,16.46
2023-05-24T12:01:30.157Z,16.14
2023-05-24T12:02:31.788Z,15.80
2023-05-24T12:03:33.491Z,15.14
2023-05-24T12:04:35.288Z,14.94
2023-05-24T12:05:37.778Z,14.95
2023-05-24T12:06:43.677Z,14.95
2023-05-24T12:07:51.279Z,15.06
2023-05-24T12:08:52.780Z,14.99
2023-05-24T12:09:54.280Z,14.42
2023-05-24T12:10:55.799Z,14.61
2023-05-24T12:11:59.988Z,14.75
2023-05-24T12:13:23.355Z,15.16
2023-05-24T12:14:28.547Z,15.61
2023-05-24T12:15:30.958Z,15.52
2023-05-24T12:16:33.218Z,15.21
2023-05-24T12:17:34.876Z,15.39
2023-05-24T12:18:37.022Z,15.56
2023-05-24T12:19:39.413Z,15.45
2023-05-24T12:20:41.067Z,15.61
2023-05-24T12:21:42.801Z,15.76
2023-05-24T12:22:52.668Z,15.84
2023-05-24T12:23:54.143Z,16.00
2023-05-24T12:24:57.108Z,15.97
2023-05-24T12:26:00.042Z,15.83
2023-05-24T12:27:07.461Z,16.04
2023-05-24T12:28:09.463Z,16.08
2023-05-24T12:29:12.366Z,16.18
2023-05-24T12:30:21.908Z,16.10
2023-05-24T12:31:23.373Z,16.51
2023-05-24T12:32:25.319Z,16.26
2023-05-24T12:33:26.926Z,16.62
2023-05-24T12:34:29.264Z,16.87
2023-05-24T12:35:31.086Z,17.17
2023-05-24T12:36:32.975Z,16.95
2023-05-24T12:37:34.463Z,17.29
2023-05-24T12:38:35.953Z,17.61
2023-05-24T12:39:38.266Z,17.89
2023-05-24T12:40:44.270Z,17.38
2023-05-24T12:41:50.900Z,17.22
2023-05-24T12:42:57.759Z,17.26
2023-05-24T12:43:59.357Z,17.61
2023-05-24T12:45:01.117Z,17.47
2023-05-24T12:46:03.296Z,17.96
2023-05-24T12:47:07.520Z,17.51
2023-05-24T12:48:09.263Z,17.44
2023-05-24T12:49:10.753Z,17.35
2023-05-24T12:50:12.827Z,15.76
2023-05-24T12:51:14.271Z,16.23
2023-05-24T12:52:15.703Z,16.23
2023-05-24T12:53:19.003Z,15.74
2023-05-24T12:54:23.222Z,15.82
2023-05-24T12:55:28.693Z,15.84
2023-05-24T12:56:30.369Z,16.10
2023-05-24T12:57:32.140Z,15.98
2023-05-24T12:58:33.633Z,15.89
2023-05-24T12:59:35.323Z,15.95
2023-05-24T13:00:36.892Z,15.59
2023-05-24T13:01:38.405Z,15.93
2023-05-24T13:02:40.565Z,15.87
2023-05-24T13:03:42.088Z,15.79
2023-05-24T13:04:43.563Z,15.53
2023-05-24T13:05:45.987Z,15.73
2023-05-24T13:06:51.073Z,15.89
2023-05-24T13:07:53.557Z,16.02
2023-05-24T13:08:55.052Z,15.82
2023-05-24T13:09:58.167Z,15.87
2023-05-24T13:10:59.688Z,15.69
2023-05-24T13:12:01.392Z,15.49
2023-05-24T13:13:03.010Z,15.49
2023-05-24T13:14:04.566Z,15.20
2023-05-24T13:15:07.639Z,14.81
2023-05-24T13:16:10.432Z,14.65
2023-05-24T13:17:12.122Z,14.66
2023-05-24T13:18:13.875Z,14.68
2023-05-24T13:19:15.445Z,14.69
2023-05-24T13:20:18.742Z,14.60
2023-05-24T13:21:20.425Z,14.68
2023-05-24T13:22:21.969Z,14.88
2023-05-24T13:23:23.456Z,15.05
2023-05-24T13:24:25.095Z,15.11
2023-05-24T13:25:27.446Z,15.13
2023-05-24T13:26:30.940Z,15.27
2023-05-24T13:27:32.454Z,15.08
2023-05-24T13:28:34.468Z,15.41
2023-05-24T13:29:45.624Z,15.59
2023-05-24T13:30:54.766Z,15.43
2023-05-24T13:31:56.445Z,15.72
2023-05-24T13:32:59.559Z,15.67
2023-05-24T13:34:01.183Z,15.58
2023-05-24T13:35:04.589Z,15.35
2023-05-24T13:36:08.289Z,15.45
2023-05-24T13:37:09.761Z,15.44
2023-05-24T13:38:12.628Z,15.29
2023-05-24T13:39:16.526Z,15.30
2023-05-24T13:40:18.538Z,15.26
2023-05-24T13:41:20.084Z,15.57
2023-05-24T13:42:22.026Z,15.55
2023-05-24T13:43:23.551Z,15.77
2023-05-24T13:44:25.030Z,16.25
2023-05-24T13:45:27.025Z,16.95
2023-05-24T13:46:29.402Z,17.48
2023-05-24T13:47:39.477Z,16.90
2023-05-24T13:48:42.249Z,17.06